Rhawnhurst, Pennsylvania
Current Conditions -  °F | °C
As of 3:44 PM on Monday 26 Jan 2015 (Local Time) from KPNE Reporting Station
Light Snow Light Snow  
Wind Chill: 14°   Ceiling: 7000
Heat Index: 27°   Visibility: 3mi
Dew Point: 19°   Wind: 17mph
Humidity: 72%   Direction: 50°NE
Pressure: 29.8"   Gusts: NA
Location:  40.063°N, 75.0797°W
Report Text: KPNE 262044Z AUTO 05015KT 3SM -SN SCT016 OVC070 M03/M07 A2980 RMK AO2 PK WND 05026/2014 P0000 T10281072 TSNO
Loading
Personal Weather Stations






























Interactive Weather Map New forecast layout! Learn more

10-Day Weather Forecast

Advertisements
Track Severe Weather on mobile